Time;durP1;ratioP1;P1;durP2;ratioP2;P2;SDS_P1;SDS_P2;PMS_P1;PMS_P2;Temp;Humidity;BMP_temperature;BMP_pressure;BME280_temperature;BME280_humidity;BME280_pressure;Samples;Min_cycle;Max_cycle;Signal;HPM_P1;HPM_P2
2023/12/11 00:00:46;;;;;;;37.33;3.00;;;;;;;;;;5077408;28;20085;-70
2023/12/11 00:03:13;;;;;;;32.87;3.47;;;;;;;;;;5095158;28;20051;-68
2023/12/11 00:05:39;;;;;;;25.47;3.13;;;;;;;;;;5095127;28;20293;-70
2023/12/11 00:08:06;;;;;;;34.47;3.03;;;;;;;;;;5095067;28;20396;-69
2023/12/11 00:10:32;;;;;;;31.13;2.50;;;;;;;;;;5093747;28;20043;-69
2023/12/11 00:12:58;;;;;;;34.88;3.00;;;;;;;;;;5094588;28;20046;-69
2023/12/11 00:15:24;;;;;;;27.23;3.08;;;;;;;;;;5128696;27;20098;-70
2023/12/11 00:17:50;;;;;;;23.02;2.53;;;;;;;;;;5096132;28;20364;-70
2023/12/11 00:20:17;;;;;;;27.48;2.97;;;;;;;;;;5094102;28;20135;-69
2023/12/11 00:22:43;;;;;;;32.60;2.90;;;;;;;;;;5095016;28;20460;-69
2023/12/11 00:25:10;;;;;;;29.73;2.70;;;;;;;;;;5094128;28;20536;-69
2023/12/11 00:27:36;;;;;;;36.30;2.38;;;;;;;;;;5094532;28;20083;-69
2023/12/11 00:30:04;;;;;;;29.90;2.70;;;;;;;;;;5093919;28;20043;-69
2023/12/11 00:32:30;;;;;;;22.33;2.15;;;;;;;;;;5093325;28;20046;-71
2023/12/11 00:34:56;;;;;;;20.70;2.28;;;;;;;;;;5093588;28;20047;-69
2023/12/11 00:37:22;;;;;;;29.40;2.58;;;;;;;;;;5094460;28;20123;-70
2023/12/11 00:39:48;;;;;;;30.80;3.17;;;;;;;;;;5093846;28;20047;-69
2023/12/11 00:42:17;;;;;;;24.10;2.53;;;;;;;;;;5076251;28;20054;-69
2023/12/11 00:44:44;;;;;;;23.52;2.70;;;;;;;;;;5093737;28;20051;-70
2023/12/11 00:47:10;;;;;;;24.67;2.08;;;;;;;;;;5092896;28;20083;-68
2023/12/11 00:49:36;;;;;;;26.03;1.93;;;;;;;;;;5094244;28;20055;-70
2023/12/11 00:52:02;;;;;;;20.08;2.53;;;;;;;;;;5093756;28;20052;-71
2023/12/11 00:54:29;;;;;;;23.83;2.17;;;;;;;;;;5093987;28;20090;-70
2023/12/11 00:56:55;;;;;;;22.80;2.60;;;;;;;;;;5092964;28;20052;-71
2023/12/11 00:59:21;;;;;;;30.20;2.55;;;;;;;;;;5094824;28;20044;-70
2023/12/11 01:01:47;;;;;;;29.52;2.83;;;;;;;;;;5059668;28;20093;-71
2023/12/11 01:04:13;;;;;;;26.50;2.40;;;;;;;;;;5093989;28;20400;-70
2023/12/11 01:06:39;;;;;;;29.25;4.65;;;;;;;;;;5075991;28;20043;-70
2023/12/11 01:09:05;;;;;;;23.27;2.22;;;;;;;;;;5093817;28;20036;-70
2023/12/11 01:11:31;;;;;;;22.43;2.90;;;;;;;;;;5093835;28;20079;-68
2023/12/11 01:13:58;;;;;;;28.42;3.20;;;;;;;;;;5094016;28;20098;-68
2023/12/11 01:16:24;;;;;;;20.80;2.40;;;;;;;;;;5093799;28;20079;-70
2023/12/11 01:18:50;;;;;;;25.52;2.55;;;;;;;;;;5093655;28;20119;-69
2023/12/11 01:21:16;;;;;;;25.35;1.90;;;;;;;;;;5094511;28;20380;-69
2023/12/11 01:23:42;;;;;;;28.85;2.63;;;;;;;;;;5093514;28;20040;-68
2023/12/11 01:26:09;;;;;;;21.73;2.30;;;;;;;;;;5092389;28;20056;-68
2023/12/11 01:28:35;;;;;;;29.20;2.30;;;;;;;;;;5093432;28;20032;-68
2023/12/11 01:31:01;;;;;;;21.95;2.53;;;;;;;;;;5093877;28;20403;-69
2023/12/11 01:33:27;;;;;;;24.25;2.15;;;;;;;;;;5093662;28;20040;-69
2023/12/11 01:35:53;;;;;;;25.50;2.63;;;;;;;;;;5094180;28;20108;-69
2023/12/11 01:38:19;;;;;;;26.75;2.50;;;;;;;;;;5092589;28;20392;-70
2023/12/11 01:40:45;;;;;;;30.55;2.72;;;;;;;;;;5093424;28;20096;-69
2023/12/11 01:43:15;;;;;;;28.08;3.22;;;;;;;;;;5093448;28;20048;-69
2023/12/11 01:45:42;;;;;;;21.98;2.70;;;;;;;;;;5094135;28;20044;-69
2023/12/11 01:48:09;;;;;;;32.85;4.38;;;;;;;;;;5093928;28;20040;-69
2023/12/11 01:50:35;;;;;;;34.75;3.30;;;;;;;;;;5092956;28;20529;-72
2023/12/11 01:53:01;;;;;;;26.70;3.00;;;;;;;;;;5092529;28;20075;-68
2023/12/11 01:55:29;;;;;;;26.67;3.20;;;;;;;;;;5093328;28;20146;-68
2023/12/11 01:57:55;;;;;;;28.52;2.95;;;;;;;;;;5076096;28;20058;-69
2023/12/11 02:00:22;;;;;;;32.92;3.05;;;;;;;;;;5092637;28;20119;-69
2023/12/11 02:02:48;;;;;;;27.92;3.25;;;;;;;;;;5093754;28;20055;-68
2023/12/11 02:05:15;;;;;;;35.15;3.00;;;;;;;;;;5130614;27;20044;-69
2023/12/11 02:07:41;;;;;;;27.20;2.97;;;;;;;;;;5097127;28;20062;-69
2023/12/11 02:10:07;;;;;;;22.77;3.80;;;;;;;;;;5097230;28;20130;-68
2023/12/11 02:12:33;;;;;;;30.83;3.10;;;;;;;;;;5097296;28;20052;-69
2023/12/11 02:15:00;;;;;;;34.42;3.28;;;;;;;;;;5097708;28;20667;-68
2023/12/11 02:17:26;;;;;;;32.35;3.70;;;;;;;;;;5096070;28;20494;-68
2023/12/11 02:19:52;;;;;;;35.45;4.00;;;;;;;;;;5095703;28;20084;-68
2023/12/11 02:22:18;;;;;;;35.03;3.28;;;;;;;;;;5130093;27;20428;-68
2023/12/11 02:24:56;;;;;;;33.75;3.00;;;;;;;;;;5096218;28;20047;-69
2023/12/11 02:27:23;;;;;;;31.65;2.88;;;;;;;;;;5095973;28;20502;-69
2023/12/11 02:29:50;;;;;;;27.25;3.85;;;;;;;;;;5096928;28;20088;-70
2023/12/11 02:32:16;;;;;;;;;;;;;;;;;;5097283;28;20047;-69
2023/12/11 02:34:43;;;;;;;38.05;3.60;;;;;;;;;;5096086;28;19920;-69
2023/12/11 02:37:09;;;;;;;43.72;5.45;;;;;;;;;;5096693;28;20052;-69
2023/12/11 02:39:36;;;;;;;39.83;4.22;;;;;;;;;;5129892;27;20100;-68
2023/12/11 02:42:02;;;;;;;32.97;3.53;;;;;;;;;;5097427;28;20426;-68
2023/12/11 02:44:28;;;;;;;33.28;4.38;;;;;;;;;;5096560;28;20043;-69
2023/12/11 02:46:54;;;;;;;32.65;3.58;;;;;;;;;;5095190;28;20054;-68
2023/12/11 02:49:20;;;;;;;38.53;4.18;;;;;;;;;;5095365;28;20185;-69
2023/12/11 02:51:46;;;;;;;31.60;3.30;;;;;;;;;;5062690;28;20372;-70
2023/12/11 02:54:13;;;;;;;31.38;3.10;;;;;;;;;;5096117;28;20048;-69
2023/12/11 02:56:40;;;;;;;41.28;4.32;;;;;;;;;;5095950;28;20452;-68
2023/12/11 02:59:06;;;;;;;37.83;4.17;;;;;;;;;;5079193;28;20394;-68
2023/12/11 03:01:32;;;;;;;42.00;4.95;;;;;;;;;;5095859;28;20066;-70
2023/12/11 03:03:58;;;;;;;34.88;3.05;;;;;;;;;;5096627;28;20048;-70
2023/12/11 03:06:26;;;;;;;35.95;3.70;;;;;;;;;;5078079;28;20044;-70
2023/12/11 03:08:52;;;;;;;32.97;3.85;;;;;;;;;;5094619;28;20113;-70
2023/12/11 03:11:18;;;;;;;33.45;2.95;;;;;;;;;;5096043;28;20044;-68
2023/12/11 03:13:44;;;;;;;32.13;3.85;;;;;;;;;;5096128;28;20498;-72
2023/12/11 03:16:15;;;;;;;38.47;4.35;;;;;;;;;;5095162;28;20044;-69
2023/12/11 03:18:41;;;;;;;27.77;3.58;;;;;;;;;;5095948;28;20060;-69
2023/12/11 03:21:08;;;;;;;35.85;3.97;;;;;;;;;;5094968;28;20097;-70
2023/12/11 03:23:34;;;;;;;41.42;4.80;;;;;;;;;;5095877;28;20044;-69
2023/12/11 03:26:00;;;;;;;36.63;3.70;;;;;;;;;;5095035;28;20048;-68
2023/12/11 03:28:28;;;;;;;47.30;4.38;;;;;;;;;;5096088;28;20051;-69
2023/12/11 03:30:54;;;;;;;28.20;3.25;;;;;;;;;;5094747;28;20052;-69
2023/12/11 03:33:20;;;;;;;37.70;3.53;;;;;;;;;;5095766;28;20093;-69
2023/12/11 03:35:46;;;;;;;41.85;3.42;;;;;;;;;;5095636;28;20289;-72
2023/12/11 03:38:12;;;;;;;42.05;3.63;;;;;;;;;;5094338;28;20044;-69
2023/12/11 03:40:39;;;;;;;43.38;4.30;;;;;;;;;;5077364;28;20488;-69
2023/12/11 03:43:05;;;;;;;38.20;3.58;;;;;;;;;;5096132;28;20044;-70
2023/12/11 03:45:31;;;;;;;36.33;3.38;;;;;;;;;;5094350;28;20048;-70
2023/12/11 03:47:57;;;;;;;30.38;3.80;;;;;;;;;;5095940;28;20079;-71
2023/12/11 03:50:23;;;;;;;26.55;2.97;;;;;;;;;;5095350;28;20055;-71
2023/12/11 03:52:49;;;;;;;30.35;2.70;;;;;;;;;;5095415;28;20161;-72
2023/12/11 03:55:15;;;;;;;28.60;2.90;;;;;;;;;;5094998;28;20048;-69
2023/12/11 03:57:41;;;;;;;31.13;2.92;;;;;;;;;;5095169;28;20106;-70
2023/12/11 04:00:08;;;;;;;23.08;2.38;;;;;;;;;;5095083;28;20140;-68
2023/12/11 04:02:34;;;;;;;24.15;2.35;;;;;;;;;;5094030;28;20040;-72
2023/12/11 04:05:00;;;;;;;19.95;2.35;;;;;;;;;;5094069;28;20044;-72
2023/12/11 04:07:28;;;;;;;24.70;2.95;;;;;;;;;;5077537;28;20080;-73
2023/12/11 04:09:54;;;;;;;;;;;;;;;;;;5094405;28;20055;-74
2023/12/11 04:12:20;;;;;;;34.70;2.92;;;;;;;;;;5093785;28;19973;-71
2023/12/11 04:14:46;;;;;;;24.07;2.53;;;;;;;;;;5095266;28;20438;-72
2023/12/11 04:17:13;;;;;;;22.58;2.47;;;;;;;;;;5095276;28;20079;-70
2023/12/11 04:19:39;;;;;;;25.10;2.47;;;;;;;;;;5094762;28;20462;-70
2023/12/11 04:22:05;;;;;;;30.70;3.83;;;;;;;;;;5093538;28;20051;-72
2023/12/11 04:24:31;;;;;;;21.33;2.65;;;;;;;;;;5093744;28;20051;-71
2023/12/11 04:26:57;;;;;;;27.60;3.05;;;;;;;;;;5094080;28;20094;-71
2023/12/11 04:29:23;;;;;;;26.38;3.15;;;;;;;;;;5096450;28;20083;-71
2023/12/11 04:31:49;;;;;;;33.08;3.05;;;;;;;;;;5099563;28;20414;-73
2023/12/11 04:34:15;;;;;;;28.70;2.90;;;;;;;;;;5079225;28;20047;-73
2023/12/11 04:36:43;;;;;;;26.42;2.83;;;;;;;;;;5077294;28;20051;-72
2023/12/11 04:39:09;;;;;;;24.85;2.38;;;;;;;;;;5095221;28;20040;-73
2023/12/11 04:41:35;;;;;;;28.15;2.17;;;;;;;;;;5093915;28;20123;-69
2023/12/11 04:44:02;;;;;;;29.30;2.97;;;;;;;;;;5093952;28;20484;-72
2023/12/11 04:46:28;;;;;;;24.58;2.25;;;;;;;;;;5093542;28;20080;-72
2023/12/11 04:48:54;;;;;;;26.70;2.78;;;;;;;;;;5094325;28;20039;-72
2023/12/11 04:51:20;;;;;;;28.95;4.28;;;;;;;;;;5094351;28;20098;-71
2023/12/11 04:53:46;;;;;;;24.30;3.00;;;;;;;;;;5093279;28;20048;-69
2023/12/11 04:56:12;;;;;;;30.80;3.30;;;;;;;;;;5094113;28;20063;-71
2023/12/11 04:58:39;;;;;;;27.23;2.83;;;;;;;;;;5094117;28;20128;-73
2023/12/11 05:01:05;;;;;;;25.83;2.78;;;;;;;;;;5092978;28;20044;-71
2023/12/11 05:03:31;;;;;;;34.55;4.10;;;;;;;;;;5094187;28;20093;-72
2023/12/11 05:05:57;;;;;;;25.42;2.80;;;;;;;;;;5092952;28;20051;-67
2023/12/11 05:08:23;;;;;;;28.10;2.67;;;;;;;;;;5094357;28;20443;-72
2023/12/11 05:10:49;;;;;;;36.45;2.17;;;;;;;;;;5075925;28;20174;-73
2023/12/11 05:13:15;;;;;;;29.40;2.67;;;;;;;;;;5092552;28;20177;-72
2023/12/11 05:15:41;;;;;;;34.80;3.05;;;;;;;;;;5094689;28;20429;-72
2023/12/11 05:18:08;;;;;;;26.23;2.50;;;;;;;;;;5093869;28;20048;-73
2023/12/11 05:20:34;;;;;;;28.50;2.88;;;;;;;;;;5092617;28;20056;-74
2023/12/11 05:23:00;;;;;;;31.92;3.50;;;;;;;;;;5094025;28;20051;-69
2023/12/11 05:25:26;;;;;;;24.10;2.78;;;;;;;;;;5094146;28;20040;-73
2023/12/11 05:27:52;;;;;;;18.73;2.28;;;;;;;;;;5126751;27;20408;-75
2023/12/11 05:30:18;;;;;;;30.48;4.07;;;;;;;;;;5094331;28;20097;-73
2023/12/11 05:32:44;;;;;;;29.38;2.47;;;;;;;;;;5093712;28;20087;-73
2023/12/11 05:35:10;;;;;;;30.30;2.65;;;;;;;;;;5093925;28;20044;-73
2023/12/11 05:37:36;;;;;;;31.85;2.70;;;;;;;;;;5093689;28;20041;-73
2023/12/11 05:40:03;;;;;;;22.88;2.33;;;;;;;;;;5094292;28;20411;-72
2023/12/11 05:42:29;;;;;;;24.73;2.22;;;;;;;;;;5093299;28;20040;-71
2023/12/11 05:44:55;;;;;;;23.60;2.25;;;;;;;;;;5092078;28;20044;-71
2023/12/11 05:47:21;;;;;;;24.70;2.50;;;;;;;;;;5093625;28;20514;-71
2023/12/11 05:49:47;;;;;;;29.35;2.63;;;;;;;;;;5075801;28;20059;-71
2023/12/11 05:52:13;;;;;;;17.02;2.20;;;;;;;;;;5093373;28;20052;-73
2023/12/11 05:54:39;;;;;;;12.82;0.88;;;;;;;;;;5091943;28;20055;-69
2023/12/11 05:57:05;;;;;;;16.92;1.45;;;;;;;;;;5093095;28;20044;-72
2023/12/11 05:59:31;;;;;;;15.13;1.55;;;;;;;;;;5093347;28;20089;-72
2023/12/11 06:01:58;;;;;;;19.48;1.85;;;;;;;;;;5126530;28;20051;-74
2023/12/11 06:04:24;;;;;;;21.23;2.33;;;;;;;;;;5092206;28;20055;-73
2023/12/11 06:06:50;;;;;;;27.77;2.38;;;;;;;;;;5093205;28;20377;-73
2023/12/11 06:09:16;;;;;;;32.83;3.72;;;;;;;;;;5091990;28;20131;-71
2023/12/11 06:11:42;;;;;;;34.70;3.40;;;;;;;;;;5093028;28;20059;-73
2023/12/11 06:14:08;;;;;;;29.73;3.42;;;;;;;;;;5092902;28;20431;-74
2023/12/11 06:16:34;;;;;;;30.27;3.35;;;;;;;;;;5093475;28;20043;-73
2023/12/11 06:19:00;;;;;;;32.58;3.40;;;;;;;;;;5092284;28;20507;-73
2023/12/11 06:21:26;;;;;;;30.65;2.80;;;;;;;;;;5092102;28;20055;-74
2023/12/11 06:23:52;;;;;;;25.23;2.45;;;;;;;;;;5093034;28;20125;-73
2023/12/11 06:26:25;;;;;;;27.58;2.58;;;;;;;;;;5092419;28;20051;-73
2023/12/11 06:28:52;;;;;;;34.45;3.15;;;;;;;;;;5075252;28;20048;-73
2023/12/11 06:31:18;;;;;;;20.17;2.63;;;;;;;;;;5093167;28;20040;-70
2023/12/11 06:33:44;;;;;;;29.65;3.70;;;;;;;;;;5092254;28;20404;-70
2023/12/11 06:36:10;;;;;;;24.15;2.70;;;;;;;;;;5092415;28;20098;-72
2023/12/11 06:38:37;;;;;;;26.63;3.13;;;;;;;;;;5092934;28;20055;-72
2023/12/11 06:41:03;;;;;;;27.38;2.53;;;;;;;;;;5093333;28;20407;-74
2023/12/11 06:43:30;;;;;;;24.02;2.40;;;;;;;;;;5093044;28;20097;-72
2023/12/11 06:45:56;;;;;;;31.13;3.22;;;;;;;;;;5075414;28;20044;-71
2023/12/11 06:48:23;;;;;;;26.13;2.57;;;;;;;;;;5093156;28;20094;-72
2023/12/11 06:50:49;;;;;;;13.68;1.80;;;;;;;;;;5095675;28;20297;-71
2023/12/11 06:53:15;;;;;;;20.55;2.65;;;;;;;;;;5097057;28;20052;-72
2023/12/11 06:55:41;;;;;;;26.85;3.75;;;;;;;;;;5099944;28;20135;-73
2023/12/11 06:58:07;;;;;;;31.17;3.38;;;;;;;;;;5082340;28;20044;-75
2023/12/11 07:00:33;;;;;;;22.85;2.28;;;;;;;;;;5100565;28;20066;-73
2023/12/11 07:02:59;;;;;;;26.67;2.75;;;;;;;;;;5101167;28;20079;-72
2023/12/11 07:05:26;;;;;;;24.90;2.50;;;;;;;;;;5098886;28;20048;-73
2023/12/11 07:07:52;;;;;;;25.35;1.95;;;;;;;;;;5100072;28;20241;-74
2023/12/11 07:10:18;;;;;;;27.10;2.58;;;;;;;;;;5097492;28;20476;-73
2023/12/11 07:12:45;;;;;;;26.60;2.90;;;;;;;;;;5098020;28;20143;-74
2023/12/11 07:15:12;;;;;;;25.42;2.63;;;;;;;;;;5096501;28;20052;-72
2023/12/11 07:17:38;;;;;;;23.33;2.33;;;;;;;;;;5095311;28;20050;-71
2023/12/11 07:20:05;;;;;;;31.40;2.50;;;;;;;;;;5095884;28;20058;-71
2023/12/11 07:22:33;;;;;;;25.95;1.73;;;;;;;;;;5095705;28;20451;-74
2023/12/11 07:24:59;;;;;;;29.27;2.88;;;;;;;;;;5096669;28;20048;-72
2023/12/11 07:27:25;;;;;;;21.30;1.90;;;;;;;;;;5077630;28;20046;-72
2023/12/11 07:29:51;;;;;;;21.42;2.17;;;;;;;;;;5096117;28;20104;-71
2023/12/11 07:32:18;;;;;;;22.55;1.80;;;;;;;;;;5094696;28;20043;-73
2023/12/11 07:34:45;;;;;;;20.45;1.70;;;;;;;;;;5096252;28;20044;-73
2023/12/11 07:37:11;;;;;;;24.10;2.40;;;;;;;;;;5078689;28;20051;-72
2023/12/11 07:39:38;;;;;;;19.13;1.80;;;;;;;;;;5094539;28;20044;-70
2023/12/11 07:42:04;;;;;;;18.58;1.77;;;;;;;;;;5094505;28;20281;-73
2023/12/11 07:44:30;;;;;;;16.70;1.85;;;;;;;;;;5095503;28;20066;-72
2023/12/11 07:46:56;;;;;;;20.17;1.73;;;;;;;;;;5095190;28;20079;-72
2023/12/11 07:49:22;;;;;;;19.40;1.67;;;;;;;;;;5094608;28;20097;-73
2023/12/11 07:51:48;;;;;;;23.33;2.10;;;;;;;;;;5094965;28;20411;-71
2023/12/11 07:54:14;;;;;;;25.48;2.15;;;;;;;;;;5095304;28;20083;-71
2023/12/11 07:56:41;;;;;;;15.23;1.58;;;;;;;;;;5094305;28;20522;-72
2023/12/11 07:59:07;;;;;;;11.33;1.30;;;;;;;;;;5094260;28;20040;-72
2023/12/11 08:01:33;;;;;;;19.33;1.55;;;;;;;;;;5094939;28;20774;-73
2023/12/11 08:03:59;;;;;;;10.98;1.50;;;;;;;;;;5093945;28;20392;-72
2023/12/11 08:06:26;;;;;;;12.32;1.27;;;;;;;;;;5095038;28;20131;-73
2023/12/11 08:08:52;;;;;;;10.87;1.27;;;;;;;;;;5095085;28;20044;-69
2023/12/11 08:11:28;;;;;;;12.18;1.40;;;;;;;;;;5095077;28;20580;-73
2023/12/11 08:13:54;;;;;;;9.50;1.00;;;;;;;;;;5095589;28;20067;-69
2023/12/11 08:16:20;;;;;;;12.55;1.15;;;;;;;;;;5093784;28;20181;-73
2023/12/11 08:18:48;;;;;;;9.88;1.33;;;;;;;;;;5094644;28;20043;-73
2023/12/11 08:21:14;;;;;;;;;;;;;;;;;;5095145;28;20083;-74
2023/12/11 08:23:40;;;;;;;10.97;1.20;;;;;;;;;;5094264;28;19924;-72
2023/12/11 08:26:07;;;;;;;10.82;1.00;;;;;;;;;;5094860;28;20476;-72
2023/12/11 08:28:33;;;;;;;8.18;0.90;;;;;;;;;;5094099;28;20048;-73
2023/12/11 08:31:00;;;;;;;6.60;0.90;;;;;;;;;;5094527;28;20498;-74
2023/12/11 08:33:26;;;;;;;8.73;1.10;;;;;;;;;;5094780;28;20483;-69
2023/12/11 08:35:53;;;;;;;7.15;0.77;;;;;;;;;;5093506;28;20052;-68
2023/12/11 08:38:21;;;;;;;7.35;1.27;;;;;;;;;;5093792;28;20396;-71
2023/12/11 08:40:47;;;;;;;8.95;0.60;;;;;;;;;;5094107;28;20047;-72
2023/12/11 08:43:13;;;;;;;7.93;0.90;;;;;;;;;;5094317;28;20408;-70
2023/12/11 08:45:40;;;;;;;5.53;0.50;;;;;;;;;;5093243;28;20052;-71
2023/12/11 08:48:06;;;;;;;8.98;0.60;;;;;;;;;;5093886;28;20043;-71
2023/12/11 08:50:32;;;;;;;7.72;0.73;;;;;;;;;;5075912;28;20048;-72
2023/12/11 08:53:03;;;;;;;10.20;0.80;;;;;;;;;;5094298;28;20052;-72
2023/12/11 08:55:29;;;;;;;9.25;0.90;;;;;;;;;;5094289;28;20056;-72
2023/12/11 08:57:55;;;;;;;12.27;0.83;;;;;;;;;;5093571;28;20048;-72
2023/12/11 09:00:21;;;;;;;11.40;1.10;;;;;;;;;;5093125;28;20052;-72
2023/12/11 09:02:48;;;;;;;9.50;1.00;;;;;;;;;;5092903;28;20044;-72
2023/12/11 09:05:14;;;;;;;12.93;2.15;;;;;;;;;;5094208;28;20101;-68
2023/12/11 09:07:41;;;;;;;10.60;1.50;;;;;;;;;;5092623;28;20048;-69
2023/12/11 09:10:08;;;;;;;18.60;2.08;;;;;;;;;;5093878;28;20048;-73
2023/12/11 09:12:34;;;;;;;;;;;;;;;;;;5093610;28;20052;-74
2023/12/11 09:15:00;;;;;;;20.92;1.83;;;;;;;;;;5093926;28;19927;-72
2023/12/11 09:17:26;;;;;;;21.08;2.05;;;;;;;;;;5094808;28;20048;-72
2023/12/11 09:19:52;;;;;;;18.10;2.10;;;;;;;;;;5094334;28;20124;-71
2023/12/11 09:22:19;;;;;;;30.58;2.88;;;;;;;;;;5094906;28;20040;-72
2023/12/11 09:24:45;;;;;;;21.43;2.07;;;;;;;;;;5094171;28;20492;-72
2023/12/11 09:27:11;;;;;;;22.77;2.40;;;;;;;;;;5097440;28;20292;-74
2023/12/11 09:29:38;;;;;;;18.00;2.13;;;;;;;;;;5099557;28;20048;-72
2023/12/11 09:32:04;;;;;;;20.42;1.90;;;;;;;;;;5097899;28;20094;-71
2023/12/11 09:34:30;;;;;;;11.23;1.13;;;;;;;;;;5092868;28;20076;-73
2023/12/11 09:36:56;;;;;;;22.85;2.30;;;;;;;;;;5093447;28;20044;-71
2023/12/11 09:39:22;;;;;;;18.10;1.77;;;;;;;;;;5126731;27;20440;-69
2023/12/11 09:41:48;;;;;;;18.98;1.88;;;;;;;;;;5093373;28;20036;-71
2023/12/11 09:44:16;;;;;;;16.83;1.73;;;;;;;;;;5093566;28;20126;-72
2023/12/11 09:46:53;;;;;;;16.27;2.03;;;;;;;;;;5092733;28;20491;-72
2023/12/11 09:49:19;;;;;;;16.63;1.23;;;;;;;;;;5093577;28;20101;-70
2023/12/11 09:51:45;;;;;;;19.87;3.13;;;;;;;;;;5093560;28;20055;-71
2023/12/11 09:54:12;;;;;;;21.27;2.10;;;;;;;;;;5093577;28;20083;-71
2023/12/11 09:56:39;;;;;;;15.95;1.50;;;;;;;;;;5092050;28;20052;-73
2023/12/11 09:59:08;;;;;;;20.90;1.38;;;;;;;;;;5093569;28;20052;-72
2023/12/11 10:01:35;;;;;;;21.98;2.10;;;;;;;;;;5093514;28;20505;-70
2023/12/11 10:04:01;;;;;;;23.10;1.85;;;;;;;;;;5093102;28;20130;-73
2023/12/11 10:06:27;;;;;;;16.83;1.33;;;;;;;;;;5093630;28;20385;-71
2023/12/11 10:08:54;;;;;;;16.37;2.13;;;;;;;;;;5093469;28;20062;-73
2023/12/11 10:11:22;;;;;;;16.80;1.23;;;;;;;;;;5092244;28;20040;-71
2023/12/11 10:13:51;;;;;;;21.15;1.25;;;;;;;;;;5093490;28;20047;-74
2023/12/11 10:16:35;;;;;;;15.27;1.27;;;;;;;;;;5093076;28;20080;-74
2023/12/11 10:19:01;;;;;;;13.48;1.67;;;;;;;;;;5092681;28;20372;-73
2023/12/11 10:21:39;;;;;;;22.58;1.73;;;;;;;;;;5092256;28;20040;-69
2023/12/11 10:24:05;;;;;;;;;;;;;;;;;;5095073;28;20127;-73
2023/12/11 10:26:32;;;;;;;15.10;1.00;;;;;;;;;;5096932;28;19971;-74
2023/12/11 10:29:17;;;;;;;19.52;1.08;;;;;;;;;;5096883;28;20091;-71
2023/12/11 10:31:43;;;;;;;17.63;1.25;;;;;;;;;;5096637;28;20044;-72
2023/12/11 10:34:09;;;;;;;13.73;0.98;;;;;;;;;;5097417;28;20044;-75
2023/12/11 10:36:36;;;;;;;13.65;1.00;;;;;;;;;;5096845;28;20454;-74
2023/12/11 10:39:08;;;;;;;12.02;1.40;;;;;;;;;;5096825;28;20085;-73
2023/12/11 10:41:34;;;;;;;17.67;1.40;;;;;;;;;;5096843;28;20446;-73
2023/12/11 10:44:00;;;;;;;18.83;1.30;;;;;;;;;;5095909;28;20388;-74
2023/12/11 10:46:27;;;;;;;17.47;1.47;;;;;;;;;;5096863;28;20052;-74
2023/12/11 10:48:54;;;;;;;16.58;1.67;;;;;;;;;;5095181;28;20048;-74
2023/12/11 10:51:21;;;;;;;12.38;1.83;;;;;;;;;;5095778;28;20036;-73
2023/12/11 10:53:47;;;;;;;12.38;0.88;;;;;;;;;;5096391;28;20396;-72
2023/12/11 10:56:13;;;;;;;16.02;1.27;;;;;;;;;;5096463;28;20063;-71
2023/12/11 10:58:39;;;;;;;17.80;0.90;;;;;;;;;;5096339;28;20051;-69
2023/12/11 11:01:07;;;;;;;11.02;0.95;;;;;;;;;;5079152;28;20080;-70
2023/12/11 11:03:34;;;;;;;12.30;0.85;;;;;;;;;;5096143;28;20044;-72
2023/12/11 11:06:00;;;;;;;14.82;1.30;;;;;;;;;;5096314;28;20090;-73
2023/12/11 11:08:26;;;;;;;15.38;1.10;;;;;;;;;;5096174;28;20051;-72
2023/12/11 11:10:57;;;;;;;12.73;0.82;;;;;;;;;;5095194;28;20123;-75
2023/12/11 11:13:26;;;;;;;16.38;1.25;;;;;;;;;;5096833;28;20051;-73
2023/12/11 11:15:56;;;;;;;13.45;0.90;;;;;;;;;;5096090;28;20044;-73
2023/12/11 11:18:22;;;;;;;16.52;1.10;;;;;;;;;;5077870;28;20047;-68
2023/12/11 11:21:09;;;;;;;13.02;1.00;;;;;;;;;;5095850;28;20502;-73
2023/12/11 11:23:48;;;;;;;15.52;1.42;;;;;;;;;;5096432;28;20437;-74
2023/12/11 11:26:35;;;;;;;18.95;1.85;;;;;;;;;;5129498;27;20048;-72
2023/12/11 11:29:04;;;;;;;16.98;1.90;;;;;;;;;;5095743;28;20089;-73
2023/12/11 11:31:51;;;;;;;15.15;1.80;;;;;;;;;;5094575;28;20131;-71
2023/12/11 11:34:36;;;;;;;20.60;2.53;;;;;;;;;;5095861;28;20050;-73
2023/12/11 11:37:02;;;;;;;18.58;1.60;;;;;;;;;;5094689;28;20051;-73
2023/12/11 11:39:48;;;;;;;19.77;2.03;;;;;;;;;;5095663;28;20088;-73
2023/12/11 11:42:14;;;;;;;22.33;2.33;;;;;;;;;;5095718;28;20503;-70
2023/12/11 11:44:40;;;;;;;28.27;2.90;;;;;;;;;;5095505;28;20059;-73
2023/12/11 11:47:06;;;;;;;23.00;2.70;;;;;;;;;;5095630;28;20048;-72
2023/12/11 11:49:35;;;;;;;19.45;1.77;;;;;;;;;;5128983;27;20044;-69
2023/12/11 11:52:10;;;;;;;20.63;1.92;;;;;;;;;;5095676;28;20162;-74
2023/12/11 11:54:37;;;;;;;18.73;1.88;;;;;;;;;;5097301;28;20047;-74
2023/12/11 11:57:03;;;;;;;16.13;1.80;;;;;;;;;;5097305;28;20138;-74
2023/12/11 11:59:29;;;;;;;17.90;2.25;;;;;;;;;;5099178;28;20119;-75
2023/12/11 12:01:56;;;;;;;16.70;1.90;;;;;;;;;;5095168;28;20047;-73
2023/12/11 12:04:29;;;;;;;18.02;1.50;;;;;;;;;;5095351;28;20131;-69
2023/12/11 12:06:57;;;;;;;12.30;1.63;;;;;;;;;;5094822;28;20139;-73
2023/12/11 12:09:23;;;;;;;11.85;1.50;;;;;;;;;;5095355;28;20052;-72
2023/12/11 12:11:49;;;;;;;16.08;1.20;;;;;;;;;;5094973;28;20055;-71
2023/12/11 12:14:15;;;;;;;11.32;0.98;;;;;;;;;;5093787;28;20036;-71
2023/12/11 12:16:41;;;;;;;15.82;1.17;;;;;;;;;;5094923;28;20047;-70
2023/12/11 12:19:07;;;;;;;8.98;0.70;;;;;;;;;;5093842;28;20078;-70
2023/12/11 12:22:06;;;;;;;9.30;0.83;;;;;;;;;;5076736;28;20127;-72
2023/12/11 12:24:38;;;;;;;8.60;0.88;;;;;;;;;;5082627;28;20301;-73
2023/12/11 12:27:09;;;;;;;9.40;0.77;;;;;;;;;;5094726;28;20074;-73
2023/12/11 12:29:35;;;;;;;14.40;1.13;;;;;;;;;;5094452;28;20502;-71
2023/12/11 12:32:01;;;;;;;10.77;0.75;;;;;;;;;;5094487;28;20063;-69
2023/12/11 12:34:30;;;;;;;10.23;0.90;;;;;;;;;;5094737;28;20135;-72
2023/12/11 12:36:56;;;;;;;8.20;0.50;;;;;;;;;;5094618;28;20059;-73
2023/12/11 12:39:22;;;;;;;4.55;0.35;;;;;;;;;;5093777;28;20472;-73
2023/12/11 12:41:49;;;;;;;5.75;0.85;;;;;;;;;;5095151;28;20048;-72
2023/12/11 12:44:17;;;;;;;7.38;1.10;;;;;;;;;;5094845;28;20048;-72
2023/12/11 12:46:44;;;;;;;6.68;0.40;;;;;;;;;;5094317;28;20071;-74
2023/12/11 12:49:14;;;;;;;6.55;0.30;;;;;;;;;;5093359;28;20051;-71
2023/12/11 12:51:44;;;;;;;6.15;0.28;;;;;;;;;;5094386;28;20455;-73
2023/12/11 12:54:14;;;;;;;5.93;0.30;;;;;;;;;;5092952;28;20110;-73
2023/12/11 12:56:41;;;;;;;5.07;0.30;;;;;;;;;;5093829;28;20056;-69
2023/12/11 12:59:07;;;;;;;4.18;0.50;;;;;;;;;;5076421;28;20095;-73
2023/12/11 13:01:37;;;;;;;6.68;0.40;;;;;;;;;;5094084;28;20052;-71
2023/12/11 13:04:04;;;;;;;3.90;0.30;;;;;;;;;;5094106;28;20051;-72
2023/12/11 13:06:31;;;;;;;3.50;0.30;;;;;;;;;;5094026;28;20134;-72
2023/12/11 13:08:58;;;;;;;8.25;0.30;;;;;;;;;;5092556;28;20040;-72
2023/12/11 13:11:43;;;;;;;6.18;0.25;;;;;;;;;;5093927;28;20093;-73
2023/12/11 13:14:11;;;;;;;3.97;0.35;;;;;;;;;;5093706;28;20052;-73
2023/12/11 13:16:44;;;;;;;3.40;0.20;;;;;;;;;;5092983;28;20115;-71
2023/12/11 13:19:14;;;;;;;3.88;0.52;;;;;;;;;;5093951;28;20073;-74
2023/12/11 13:21:41;;;;;;;6.47;0.30;;;;;;;;;;5093758;28;20051;-73
2023/12/11 13:24:07;;;;;;;;;;;;;;;;;;5076559;28;20498;-72
2023/12/11 13:26:33;;;;;;;3.10;0.20;;;;;;;;;;5092813;28;19924;-74
2023/12/11 13:28:59;;;;;;;6.63;0.98;;;;;;;;;;5092535;28;20044;-74
2023/12/11 13:31:25;;;;;;;5.85;0.30;;;;;;;;;;5094508;28;20044;-73
2023/12/11 13:33:54;;;;;;;5.65;0.50;;;;;;;;;;5093670;28;20172;-73
2023/12/11 13:36:21;;;;;;;6.47;0.40;;;;;;;;;;5093575;28;20048;-73
2023/12/11 13:38:48;;;;;;;6.10;0.40;;;;;;;;;;5093689;28;20388;-71
2023/12/11 13:41:15;;;;;;;4.93;0.60;;;;;;;;;;5093513;28;20044;-71
2023/12/11 13:43:41;;;;;;;4.22;0.32;;;;;;;;;;5059836;28;20382;-71
2023/12/11 13:46:07;;;;;;;5.00;0.70;;;;;;;;;;5093337;28;20502;-73
2023/12/11 13:48:34;;;;;;;4.43;0.20;;;;;;;;;;5093403;28;20139;-73
2023/12/11 13:51:00;;;;;;;4.18;0.52;;;;;;;;;;5075736;28;20052;-74
2023/12/11 13:53:26;;;;;;;5.90;0.15;;;;;;;;;;5092919;28;20463;-72
2023/12/11 13:55:53;;;;;;;8.48;0.35;;;;;;;;;;5091975;28;20101;-73
2023/12/11 13:58:19;;;;;;;3.53;0.30;;;;;;;;;;5092348;28;20106;-73
2023/12/11 14:00:45;;;;;;;5.75;0.20;;;;;;;;;;5097301;28;20050;-73
2023/12/11 14:03:11;;;;;;;6.80;0.20;;;;;;;;;;5079618;28;20055;-72
2023/12/11 14:05:37;;;;;;;3.47;0.30;;;;;;;;;;5079483;28;20052;-72
2023/12/11 14:08:04;;;;;;;4.30;0.30;;;;;;;;;;5079772;28;20138;-74
2023/12/11 14:10:30;;;;;;;3.10;0.20;;;;;;;;;;5097138;28;20154;-75
2023/12/11 14:12:57;;;;;;;5.13;0.30;;;;;;;;;;5097930;28;20352;-72
2023/12/11 14:15:23;;;;;;;6.80;0.40;;;;;;;;;;5079329;28;20052;-73
2023/12/11 14:17:50;;;;;;;4.18;0.32;;;;;;;;;;5096407;28;20112;-74
2023/12/11 14:20:16;;;;;;;4.55;0.40;;;;;;;;;;5097314;28;20063;-73
2023/12/11 14:22:42;;;;;;;8.57;0.28;;;;;;;;;;5080548;28;20102;-72
2023/12/11 14:25:08;;;;;;;5.78;0.40;;;;;;;;;;5099386;28;20131;-72
2023/12/11 14:27:35;;;;;;;4.60;0.20;;;;;;;;;;5099070;28;20106;-72
2023/12/11 14:30:01;;;;;;;4.75;0.30;;;;;;;;;;5096319;28;20127;-74
2023/12/11 14:32:27;;;;;;;4.40;0.20;;;;;;;;;;5095918;28;20044;-73